sensor_id;sensor_type;location;lat;lon;timestamp;P1;durP1;ratioP1;P2;durP2;ratioP2
11024;SDS011;22890;51.820;8.682;2023-08-20T00:01:02;14.23;;;12.70;;
11024;SDS011;22890;51.820;8.682;2023-08-20T00:03:30;20.07;;;17.53;;
11024;SDS011;22890;51.820;8.682;2023-08-20T00:05:57;21.37;;;19.00;;
11024;SDS011;22890;51.820;8.682;2023-08-20T00:08:24;27.50;;;20.23;;
11024;SDS011;22890;51.820;8.682;2023-08-20T00:10:51;19.43;;;16.93;;
11024;SDS011;22890;51.820;8.682;2023-08-20T00:13:18;22.00;;;17.30;;
11024;SDS011;22890;51.820;8.682;2023-08-20T00:15:44;24.23;;;17.27;;
11024;SDS011;22890;51.820;8.682;2023-08-20T00:18:12;18.00;;;15.23;;
11024;SDS011;22890;51.820;8.682;2023-08-20T00:20:39;21.30;;;18.60;;
11024;SDS011;22890;51.820;8.682;2023-08-20T00:23:06;22.63;;;19.50;;
11024;SDS011;22890;51.820;8.682;2023-08-20T00:25:34;22.17;;;18.57;;
11024;SDS011;22890;51.820;8.682;2023-08-20T00:28:01;22.10;;;16.77;;
11024;SDS011;22890;51.820;8.682;2023-08-20T00:30:28;20.63;;;17.20;;
11024;SDS011;22890;51.820;8.682;2023-08-20T00:32:54;21.87;;;17.67;;
11024;SDS011;22890;51.820;8.682;2023-08-20T00:35:22;19.90;;;16.47;;
11024;SDS011;22890;51.820;8.682;2023-08-20T00:37:49;17.60;;;15.90;;
11024;SDS011;22890;51.820;8.682;2023-08-20T00:40:16;19.87;;;17.03;;
11024;SDS011;22890;51.820;8.682;2023-08-20T00:42:43;19.43;;;16.40;;
11024;SDS011;22890;51.820;8.682;2023-08-20T00:45:09;17.00;;;15.27;;
11024;SDS011;22890;51.820;8.682;2023-08-20T00:47:36;16.67;;;14.90;;
11024;SDS011;22890;51.820;8.682;2023-08-20T00:50:05;17.33;;;15.63;;
11024;SDS011;22890;51.820;8.682;2023-08-20T00:52:33;20.20;;;15.70;;
11024;SDS011;22890;51.820;8.682;2023-08-20T00:55:10;25.10;;;15.47;;
11024;SDS011;22890;51.820;8.682;2023-08-20T00:57:37;26.13;;;19.73;;
11024;SDS011;22890;51.820;8.682;2023-08-20T01:00:05;19.87;;;17.77;;
11024;SDS011;22890;51.820;8.682;2023-08-20T01:02:37;23.43;;;17.47;;
11024;SDS011;22890;51.820;8.682;2023-08-20T01:05:04;20.27;;;17.10;;
11024;SDS011;22890;51.820;8.682;2023-08-20T01:10:48;17.73;;;15.70;;
11024;SDS011;22890;51.820;8.682;2023-08-20T01:13:30;19.73;;;15.20;;
11024;SDS011;22890;51.820;8.682;2023-08-20T01:15:56;22.77;;;16.23;;
11024;SDS011;22890;51.820;8.682;2023-08-20T01:18:23;18.13;;;15.10;;
11024;SDS011;22890;51.820;8.682;2023-08-20T01:20:53;24.80;;;14.33;;
11024;SDS011;22890;51.820;8.682;2023-08-20T01:23:38;13.93;;;12.37;;
11024;SDS011;22890;51.820;8.682;2023-08-20T01:26:48;10.30;;;9.40;;
11024;SDS011;22890;51.820;8.682;2023-08-20T01:29:36;12.20;;;10.23;;
11024;SDS011;22890;51.820;8.682;2023-08-20T01:32:05;12.97;;;11.67;;
11024;SDS011;22890;51.820;8.682;2023-08-20T01:34:33;14.53;;;11.27;;
11024;SDS011;22890;51.820;8.682;2023-08-20T01:37:00;13.53;;;12.10;;
11024;SDS011;22890;51.820;8.682;2023-08-20T01:39:27;16.40;;;12.63;;
11024;SDS011;22890;51.820;8.682;2023-08-20T01:41:53;16.23;;;14.53;;
11024;SDS011;22890;51.820;8.682;2023-08-20T01:44:20;21.43;;;16.53;;
11024;SDS011;22890;51.820;8.682;2023-08-20T01:46:47;22.60;;;19.37;;
11024;SDS011;22890;51.820;8.682;2023-08-20T01:49:14;22.93;;;19.40;;
11024;SDS011;22890;51.820;8.682;2023-08-20T01:51:41;23.57;;;17.03;;
11024;SDS011;22890;51.820;8.682;2023-08-20T01:54:07;24.80;;;19.53;;
11024;SDS011;22890;51.820;8.682;2023-08-20T01:56:34;27.63;;;18.67;;
11024;SDS011;22890;51.820;8.682;2023-08-20T01:59:01;31.20;;;19.67;;
11024;SDS011;22890;51.820;8.682;2023-08-20T02:01:28;28.57;;;19.23;;
11024;SDS011;22890;51.820;8.682;2023-08-20T02:03:55;23.47;;;18.13;;
11024;SDS011;22890;51.820;8.682;2023-08-20T02:06:21;25.47;;;18.13;;
11024;SDS011;22890;51.820;8.682;2023-08-20T02:08:48;26.37;;;18.93;;
11024;SDS011;22890;51.820;8.682;2023-08-20T02:11:15;25.70;;;18.83;;
11024;SDS011;22890;51.820;8.682;2023-08-20T02:13:44;26.40;;;19.37;;
11024;SDS011;22890;51.820;8.682;2023-08-20T02:16:10;26.20;;;19.17;;
11024;SDS011;22890;51.820;8.682;2023-08-20T02:18:37;27.13;;;19.77;;
11024;SDS011;22890;51.820;8.682;2023-08-20T02:21:04;24.67;;;18.80;;
11024;SDS011;22890;51.820;8.682;2023-08-20T02:23:31;28.23;;;19.63;;
11024;SDS011;22890;51.820;8.682;2023-08-20T02:25:57;28.53;;;19.77;;
11024;SDS011;22890;51.820;8.682;2023-08-20T02:28:26;25.40;;;18.70;;
11024;SDS011;22890;51.820;8.682;2023-08-20T02:30:54;30.03;;;19.63;;
11024;SDS011;22890;51.820;8.682;2023-08-20T02:33:21;26.47;;;20.30;;
11024;SDS011;22890;51.820;8.682;2023-08-20T02:35:47;27.90;;;18.83;;
11024;SDS011;22890;51.820;8.682;2023-08-20T02:38:14;26.37;;;19.40;;
11024;SDS011;22890;51.820;8.682;2023-08-20T02:40:41;27.53;;;18.50;;
11024;SDS011;22890;51.820;8.682;2023-08-20T02:43:08;29.27;;;20.67;;
11024;SDS011;22890;51.820;8.682;2023-08-20T02:45:39;25.10;;;18.73;;
11024;SDS011;22890;51.820;8.682;2023-08-20T02:48:09;24.70;;;17.87;;
11024;SDS011;22890;51.820;8.682;2023-08-20T02:50:37;22.17;;;16.63;;
11024;SDS011;22890;51.820;8.682;2023-08-20T02:53:04;19.50;;;15.63;;
11024;SDS011;22890;51.820;8.682;2023-08-20T02:55:31;26.50;;;17.87;;
11024;SDS011;22890;51.820;8.682;2023-08-20T02:57:59;22.50;;;16.67;;
11024;SDS011;22890;51.820;8.682;2023-08-20T03:00:26;19.77;;;16.53;;
11024;SDS011;22890;51.820;8.682;2023-08-20T03:02:54;21.93;;;14.37;;
11024;SDS011;22890;51.820;8.682;2023-08-20T03:05:22;19.93;;;15.43;;
11024;SDS011;22890;51.820;8.682;2023-08-20T03:07:49;19.33;;;15.53;;
11024;SDS011;22890;51.820;8.682;2023-08-20T03:10:15;15.10;;;13.23;;
11024;SDS011;22890;51.820;8.682;2023-08-20T03:12:42;18.37;;;14.07;;
11024;SDS011;22890;51.820;8.682;2023-08-20T03:15:09;20.87;;;16.37;;
11024;SDS011;22890;51.820;8.682;2023-08-20T03:17:36;21.53;;;16.93;;
11024;SDS011;22890;51.820;8.682;2023-08-20T03:20:03;25.00;;;18.17;;
11024;SDS011;22890;51.820;8.682;2023-08-20T03:22:32;25.97;;;17.83;;
11024;SDS011;22890;51.820;8.682;2023-08-20T03:24:59;25.73;;;17.77;;
11024;SDS011;22890;51.820;8.682;2023-08-20T03:27:26;21.10;;;16.80;;
11024;SDS011;22890;51.820;8.682;2023-08-20T03:29:53;20.07;;;16.67;;
11024;SDS011;22890;51.820;8.682;2023-08-20T03:32:20;25.67;;;17.17;;
11024;SDS011;22890;51.820;8.682;2023-08-20T03:34:48;25.03;;;17.77;;
11024;SDS011;22890;51.820;8.682;2023-08-20T03:37:17;21.30;;;16.70;;
11024;SDS011;22890;51.820;8.682;2023-08-20T03:39:44;23.90;;;15.90;;
11024;SDS011;22890;51.820;8.682;2023-08-20T03:42:11;30.40;;;20.60;;
11024;SDS011;22890;51.820;8.682;2023-08-20T03:44:38;30.13;;;21.87;;
11024;SDS011;22890;51.820;8.682;2023-08-20T03:47:05;26.70;;;19.37;;
11024;SDS011;22890;51.820;8.682;2023-08-20T03:49:35;26.47;;;18.53;;
11024;SDS011;22890;51.820;8.682;2023-08-20T03:52:02;20.43;;;16.43;;
11024;SDS011;22890;51.820;8.682;2023-08-20T03:54:29;20.23;;;15.83;;
11024;SDS011;22890;51.820;8.682;2023-08-20T03:56:56;22.23;;;16.67;;
11024;SDS011;22890;51.820;8.682;2023-08-20T03:59:23;24.60;;;18.67;;
11024;SDS011;22890;51.820;8.682;2023-08-20T04:01:50;27.10;;;20.27;;
11024;SDS011;22890;51.820;8.682;2023-08-20T04:04:17;25.83;;;18.97;;
11024;SDS011;22890;51.820;8.682;2023-08-20T04:06:43;22.57;;;15.33;;
11024;SDS011;22890;51.820;8.682;2023-08-20T04:09:10;22.47;;;16.33;;
11024;SDS011;22890;51.820;8.682;2023-08-20T04:11:38;26.70;;;16.63;;
11024;SDS011;22890;51.820;8.682;2023-08-20T04:14:05;28.30;;;18.30;;
11024;SDS011;22890;51.820;8.682;2023-08-20T04:16:31;27.50;;;18.33;;
11024;SDS011;22890;51.820;8.682;2023-08-20T04:18:58;22.40;;;16.70;;
11024;SDS011;22890;51.820;8.682;2023-08-20T04:21:25;26.03;;;16.20;;
11024;SDS011;22890;51.820;8.682;2023-08-20T04:23:52;24.10;;;16.77;;
11024;SDS011;22890;51.820;8.682;2023-08-20T04:26:19;26.20;;;18.57;;
11024;SDS011;22890;51.820;8.682;2023-08-20T04:28:46;24.00;;;17.40;;
11024;SDS011;22890;51.820;8.682;2023-08-20T04:31:12;25.63;;;19.33;;
11024;SDS011;22890;51.820;8.682;2023-08-20T04:33:47;25.83;;;19.63;;
11024;SDS011;22890;51.820;8.682;2023-08-20T04:36:18;33.67;;;19.20;;
11024;SDS011;22890;51.820;8.682;2023-08-20T04:38:45;24.03;;;18.57;;
11024;SDS011;22890;51.820;8.682;2023-08-20T04:41:11;22.50;;;18.13;;
11024;SDS011;22890;51.820;8.682;2023-08-20T04:43:38;26.80;;;17.73;;
11024;SDS011;22890;51.820;8.682;2023-08-20T04:46:05;27.67;;;17.87;;
11024;SDS011;22890;51.820;8.682;2023-08-20T04:48:32;26.13;;;18.27;;
11024;SDS011;22890;51.820;8.682;2023-08-20T04:50:59;26.27;;;17.07;;
11024;SDS011;22890;51.820;8.682;2023-08-20T04:53:26;24.97;;;16.40;;
11024;SDS011;22890;51.820;8.682;2023-08-20T04:55:53;23.47;;;17.23;;
11024;SDS011;22890;51.820;8.682;2023-08-20T04:58:21;27.63;;;16.87;;
11024;SDS011;22890;51.820;8.682;2023-08-20T05:00:48;26.23;;;17.70;;
11024;SDS011;22890;51.820;8.682;2023-08-20T05:03:15;24.33;;;16.93;;
11024;SDS011;22890;51.820;8.682;2023-08-20T05:05:47;26.10;;;16.50;;
11024;SDS011;22890;51.820;8.682;2023-08-20T05:08:15;23.03;;;16.97;;
11024;SDS011;22890;51.820;8.682;2023-08-20T05:10:43;25.07;;;16.50;;
11024;SDS011;22890;51.820;8.682;2023-08-20T05:13:10;19.10;;;14.87;;
11024;SDS011;22890;51.820;8.682;2023-08-20T05:15:37;18.47;;;13.17;;
11024;SDS011;22890;51.820;8.682;2023-08-20T05:18:04;19.83;;;12.40;;
11024;SDS011;22890;51.820;8.682;2023-08-20T05:20:31;17.80;;;11.90;;
11024;SDS011;22890;51.820;8.682;2023-08-20T05:22:58;20.80;;;14.20;;
11024;SDS011;22890;51.820;8.682;2023-08-20T05:25:24;21.10;;;13.17;;
11024;SDS011;22890;51.820;8.682;2023-08-20T05:27:51;19.07;;;14.17;;
11024;SDS011;22890;51.820;8.682;2023-08-20T05:30:18;19.07;;;13.03;;
11024;SDS011;22890;51.820;8.682;2023-08-20T05:32:45;16.03;;;11.83;;
11024;SDS011;22890;51.820;8.682;2023-08-20T05:35:11;13.97;;;10.83;;
11024;SDS011;22890;51.820;8.682;2023-08-20T05:37:40;20.60;;;11.17;;
11024;SDS011;22890;51.820;8.682;2023-08-20T05:40:07;17.27;;;12.70;;
11024;SDS011;22890;51.820;8.682;2023-08-20T05:42:35;15.13;;;11.83;;
11024;SDS011;22890;51.820;8.682;2023-08-20T05:45:05;13.43;;;11.13;;
11024;SDS011;22890;51.820;8.682;2023-08-20T05:47:32;16.80;;;10.83;;
11024;SDS011;22890;51.820;8.682;2023-08-20T05:49:59;12.77;;;10.57;;
11024;SDS011;22890;51.820;8.682;2023-08-20T05:52:26;16.87;;;11.03;;
11024;SDS011;22890;51.820;8.682;2023-08-20T05:54:53;13.60;;;10.47;;
11024;SDS011;22890;51.820;8.682;2023-08-20T05:57:20;15.63;;;10.80;;
11024;SDS011;22890;51.820;8.682;2023-08-20T05:59:47;16.00;;;10.10;;
11024;SDS011;22890;51.820;8.682;2023-08-20T06:02:18;13.97;;;9.80;;
11024;SDS011;22890;51.820;8.682;2023-08-20T06:04:45;16.80;;;10.40;;
11024;SDS011;22890;51.820;8.682;2023-08-20T06:07:12;10.60;;;9.50;;
11024;SDS011;22890;51.820;8.682;2023-08-20T06:09:39;15.27;;;9.93;;
11024;SDS011;22890;51.820;8.682;2023-08-20T06:12:05;14.17;;;8.90;;
11024;SDS011;22890;51.820;8.682;2023-08-20T06:14:33;14.97;;;10.20;;
11024;SDS011;22890;51.820;8.682;2023-08-20T06:16:59;12.33;;;9.40;;
11024;SDS011;22890;51.820;8.682;2023-08-20T06:19:26;15.80;;;10.27;;
11024;SDS011;22890;51.820;8.682;2023-08-20T06:21:53;15.00;;;10.63;;
11024;SDS011;22890;51.820;8.682;2023-08-20T06:24:19;16.80;;;9.77;;
11024;SDS011;22890;51.820;8.682;2023-08-20T06:26:46;13.30;;;9.27;;
11024;SDS011;22890;51.820;8.682;2023-08-20T06:29:13;18.60;;;10.00;;
11024;SDS011;22890;51.820;8.682;2023-08-20T06:31:40;19.97;;;10.30;;
11024;SDS011;22890;51.820;8.682;2023-08-20T06:34:07;17.33;;;10.27;;
11024;SDS011;22890;51.820;8.682;2023-08-20T06:36:34;11.07;;;9.60;;
11024;SDS011;22890;51.820;8.682;2023-08-20T06:39:01;12.57;;;10.43;;
11024;SDS011;22890;51.820;8.682;2023-08-20T06:41:28;12.87;;;10.83;;
11024;SDS011;22890;51.820;8.682;2023-08-20T06:43:54;13.57;;;10.53;;
11024;SDS011;22890;51.820;8.682;2023-08-20T06:46:21;16.50;;;11.57;;
11024;SDS011;22890;51.820;8.682;2023-08-20T06:48:48;11.70;;;10.23;;
11024;SDS011;22890;51.820;8.682;2023-08-20T06:51:15;13.13;;;10.30;;
11024;SDS011;22890;51.820;8.682;2023-08-20T06:53:45;12.97;;;10.33;;
11024;SDS011;22890;51.820;8.682;2023-08-20T06:56:11;14.30;;;11.47;;
11024;SDS011;22890;51.820;8.682;2023-08-20T06:58:39;15.43;;;11.40;;
11024;SDS011;22890;51.820;8.682;2023-08-20T07:01:06;14.67;;;10.87;;
11024;SDS011;22890;51.820;8.682;2023-08-20T07:03:35;17.60;;;13.23;;
11024;SDS011;22890;51.820;8.682;2023-08-20T07:06:04;18.50;;;15.33;;
11024;SDS011;22890;51.820;8.682;2023-08-20T07:08:31;16.90;;;13.87;;
11024;SDS011;22890;51.820;8.682;2023-08-20T07:10:58;21.53;;;15.57;;
11024;SDS011;22890;51.820;8.682;2023-08-20T07:13:25;20.43;;;16.83;;
11024;SDS011;22890;51.820;8.682;2023-08-20T07:15:52;18.63;;;14.60;;
11024;SDS011;22890;51.820;8.682;2023-08-20T07:18:18;18.57;;;14.40;;
11024;SDS011;22890;51.820;8.682;2023-08-20T07:20:45;16.17;;;14.00;;
11024;SDS011;22890;51.820;8.682;2023-08-20T07:23:12;16.90;;;14.33;;
11024;SDS011;22890;51.820;8.682;2023-08-20T07:25:39;21.57;;;14.63;;
11024;SDS011;22890;51.820;8.682;2023-08-20T07:28:07;20.23;;;15.47;;
11024;SDS011;22890;51.820;8.682;2023-08-20T07:30:35;17.23;;;15.20;;
11024;SDS011;22890;51.820;8.682;2023-08-20T07:33:02;17.83;;;14.57;;
11024;SDS011;22890;51.820;8.682;2023-08-20T07:35:32;21.47;;;15.60;;
11024;SDS011;22890;51.820;8.682;2023-08-20T07:37:59;17.77;;;15.87;;
11024;SDS011;22890;51.820;8.682;2023-08-20T07:40:26;18.90;;;14.43;;
11024;SDS011;22890;51.820;8.682;2023-08-20T07:42:53;20.70;;;17.47;;
11024;SDS011;22890;51.820;8.682;2023-08-20T07:45:20;18.73;;;14.50;;
11024;SDS011;22890;51.820;8.682;2023-08-20T07:47:47;18.47;;;15.20;;
11024;SDS011;22890;51.820;8.682;2023-08-20T07:50:13;27.80;;;16.43;;
11024;SDS011;22890;51.820;8.682;2023-08-20T07:52:40;23.50;;;18.13;;
11024;SDS011;22890;51.820;8.682;2023-08-20T07:55:07;20.33;;;17.10;;
11024;SDS011;22890;51.820;8.682;2023-08-20T07:57:34;19.17;;;16.30;;
11024;SDS011;22890;51.820;8.682;2023-08-20T08:00:01;22.83;;;15.97;;
11024;SDS011;22890;51.820;8.682;2023-08-20T08:02:36;20.93;;;16.63;;
11024;SDS011;22890;51.820;8.682;2023-08-20T08:05:03;20.83;;;17.47;;
11024;SDS011;22890;51.820;8.682;2023-08-20T08:07:30;17.90;;;15.73;;
11024;SDS011;22890;51.820;8.682;2023-08-20T08:09:57;18.10;;;15.30;;
11024;SDS011;22890;51.820;8.682;2023-08-20T08:12:24;19.67;;;15.70;;
11024;SDS011;22890;51.820;8.682;2023-08-20T08:14:50;21.03;;;15.87;;
11024;SDS011;22890;51.820;8.682;2023-08-20T08:17:17;18.87;;;16.87;;
11024;SDS011;22890;51.820;8.682;2023-08-20T08:19:44;18.07;;;16.10;;
11024;SDS011;22890;51.820;8.682;2023-08-20T08:22:11;17.27;;;15.47;;
11024;SDS011;22890;51.820;8.682;2023-08-20T08:24:38;18.37;;;15.83;;
11024;SDS011;22890;51.820;8.682;2023-08-20T08:27:08;23.07;;;17.03;;
11024;SDS011;22890;51.820;8.682;2023-08-20T08:29:34;16.27;;;14.50;;
11024;SDS011;22890;51.820;8.682;2023-08-20T08:32:01;18.93;;;16.63;;
11024;SDS011;22890;51.820;8.682;2023-08-20T08:34:28;19.60;;;15.33;;
11024;SDS011;22890;51.820;8.682;2023-08-20T08:36:55;21.23;;;17.13;;
11024;SDS011;22890;51.820;8.682;2023-08-20T08:39:21;18.13;;;15.57;;
11024;SDS011;22890;51.820;8.682;2023-08-20T08:41:49;15.73;;;14.03;;
11024;SDS011;22890;51.820;8.682;2023-08-20T08:44:19;18.30;;;15.23;;
11024;SDS011;22890;51.820;8.682;2023-08-20T08:46:48;17.67;;;14.17;;
11024;SDS011;22890;51.820;8.682;2023-08-20T08:49:16;16.93;;;14.17;;
11024;SDS011;22890;51.820;8.682;2023-08-20T08:51:43;19.77;;;16.97;;
11024;SDS011;22890;51.820;8.682;2023-08-20T08:54:12;18.97;;;16.00;;
11024;SDS011;22890;51.820;8.682;2023-08-20T08:56:41;15.07;;;13.17;;
11024;SDS011;22890;51.820;8.682;2023-08-20T08:59:08;18.90;;;15.00;;
11024;SDS011;22890;51.820;8.682;2023-08-20T09:01:38;17.63;;;15.73;;
11024;SDS011;22890;51.820;8.682;2023-08-20T09:04:06;16.67;;;14.97;;
11024;SDS011;22890;51.820;8.682;2023-08-20T09:06:46;17.70;;;13.77;;
11024;SDS011;22890;51.820;8.682;2023-08-20T09:09:16;17.40;;;14.50;;
11024;SDS011;22890;51.820;8.682;2023-08-20T09:11:43;15.60;;;13.83;;
11024;SDS011;22890;51.820;8.682;2023-08-20T09:14:20;17.60;;;14.60;;
11024;SDS011;22890;51.820;8.682;2023-08-20T09:16:54;16.03;;;14.37;;
11024;SDS011;22890;51.820;8.682;2023-08-20T09:19:22;16.93;;;15.23;;
11024;SDS011;22890;51.820;8.682;2023-08-20T09:21:49;15.23;;;13.60;;
11024;SDS011;22890;51.820;8.682;2023-08-20T09:24:25;14.47;;;12.40;;
11024;SDS011;22890;51.820;8.682;2023-08-20T09:26:57;15.07;;;13.47;;
11024;SDS011;22890;51.820;8.682;2023-08-20T09:29:25;13.90;;;12.17;;
11024;SDS011;22890;51.820;8.682;2023-08-20T09:31:59;13.73;;;12.33;;
11024;SDS011;22890;51.820;8.682;2023-08-20T09:34:37;14.70;;;12.67;;
11024;SDS011;22890;51.820;8.682;2023-08-20T09:37:08;13.37;;;12.17;;
11024;SDS011;22890;51.820;8.682;2023-08-20T09:39:36;13.97;;;12.50;;
11024;SDS011;22890;51.820;8.682;2023-08-20T09:42:04;11.73;;;10.63;;
11024;SDS011;22890;51.820;8.682;2023-08-20T09:44:33;13.77;;;11.90;;
11024;SDS011;22890;51.820;8.682;2023-08-20T09:47:02;14.10;;;10.73;;
11024;SDS011;22890;51.820;8.682;2023-08-20T09:49:32;14.50;;;11.03;;
11024;SDS011;22890;51.820;8.682;2023-08-20T09:52:04;10.80;;;9.80;;
11024;SDS011;22890;51.820;8.682;2023-08-20T09:54:45;12.40;;;10.63;;
11024;SDS011;22890;51.820;8.682;2023-08-20T09:57:35;12.77;;;11.50;;
11024;SDS011;22890;51.820;8.682;2023-08-20T10:00:04;11.63;;;10.43;;
11024;SDS011;22890;51.820;8.682;2023-08-20T10:02:39;14.57;;;11.60;;
11024;SDS011;22890;51.820;8.682;2023-08-20T10:05:07;11.57;;;10.33;;
11024;SDS011;22890;51.820;8.682;2023-08-20T10:07:37;13.60;;;12.30;;
11024;SDS011;22890;51.820;8.682;2023-08-20T10:10:08;11.50;;;10.50;;
11024;SDS011;22890;51.820;8.682;2023-08-20T10:12:37;12.73;;;11.33;;
11024;SDS011;22890;51.820;8.682;2023-08-20T10:15:09;11.00;;;9.90;;
11024;SDS011;22890;51.820;8.682;2023-08-20T10:17:37;11.33;;;9.97;;
11024;SDS011;22890;51.820;8.682;2023-08-20T10:20:06;12.23;;;10.60;;
11024;SDS011;22890;51.820;8.682;2023-08-20T10:22:38;11.90;;;10.33;;
11024;SDS011;22890;51.820;8.682;2023-08-20T10:25:11;11.50;;;10.40;;
11024;SDS011;22890;51.820;8.682;2023-08-20T10:27:47;14.97;;;11.77;;
11024;SDS011;22890;51.820;8.682;2023-08-20T10:30:17;12.57;;;11.37;;
11024;SDS011;22890;51.820;8.682;2023-08-20T10:35:19;10.83;;;9.83;;
11024;SDS011;22890;51.820;8.682;2023-08-20T10:38:00;11.63;;;10.53;;
11024;SDS011;22890;51.820;8.682;2023-08-20T10:40:47;11.60;;;10.43;;
11024;SDS011;22890;51.820;8.682;2023-08-20T10:43:30;11.40;;;10.23;;
11024;SDS011;22890;51.820;8.682;2023-08-20T10:46:08;12.77;;;11.47;;
11024;SDS011;22890;51.820;8.682;2023-08-20T10:48:54;12.20;;;10.20;;
11024;SDS011;22890;51.820;8.682;2023-08-20T10:51:37;9.53;;;8.53;;
11024;SDS011;22890;51.820;8.682;2023-08-20T10:54:06;10.63;;;9.63;;
11024;SDS011;22890;51.820;8.682;2023-08-20T10:56:38;12.00;;;10.77;;
11024;SDS011;22890;51.820;8.682;2023-08-20T10:59:47;11.70;;;9.70;;
11024;SDS011;22890;51.820;8.682;2023-08-20T11:02:07;10.67;;;9.23;;
11024;SDS011;22890;51.820;8.682;2023-08-20T11:04:41;10.60;;;9.50;;
11024;SDS011;22890;51.820;8.682;2023-08-20T11:07:08;12.33;;;9.23;;
11024;SDS011;22890;51.820;8.682;2023-08-20T11:09:35;10.20;;;9.30;;
11024;SDS011;22890;51.820;8.682;2023-08-20T11:12:05;9.73;;;8.73;;
11024;SDS011;22890;51.820;8.682;2023-08-20T11:14:34;10.57;;;9.47;;
11024;SDS011;22890;51.820;8.682;2023-08-20T11:17:01;9.60;;;8.70;;
11024;SDS011;22890;51.820;8.682;2023-08-20T11:19:28;9.70;;;8.80;;
11024;SDS011;22890;51.820;8.682;2023-08-20T11:21:55;10.10;;;9.00;;
11024;SDS011;22890;51.820;8.682;2023-08-20T11:24:23;9.03;;;8.30;;
11024;SDS011;22890;51.820;8.682;2023-08-20T11:26:49;8.93;;;8.13;;
11024;SDS011;22890;51.820;8.682;2023-08-20T11:29:17;8.83;;;8.03;;
11024;SDS011;22890;51.820;8.682;2023-08-20T11:31:48;8.77;;;7.33;;
11024;SDS011;22890;51.820;8.682;2023-08-20T11:34:15;7.43;;;6.73;;
11024;SDS011;22890;51.820;8.682;2023-08-20T11:36:44;7.00;;;6.23;;
11024;SDS011;22890;51.820;8.682;2023-08-20T11:39:11;7.43;;;6.43;;
11024;SDS011;22890;51.820;8.682;2023-08-20T11:41:38;9.30;;;7.40;;
11024;SDS011;22890;51.820;8.682;2023-08-20T11:44:08;7.97;;;7.23;;
11024;SDS011;22890;51.820;8.682;2023-08-20T11:46:41;7.90;;;7.13;;
11024;SDS011;22890;51.820;8.682;2023-08-20T11:49:10;8.43;;;7.10;;
11024;SDS011;22890;51.820;8.682;2023-08-20T11:51:41;8.23;;;7.43;;
11024;SDS011;22890;51.820;8.682;2023-08-20T11:54:15;8.60;;;7.00;;
11024;SDS011;22890;51.820;8.682;2023-08-20T11:56:44;8.00;;;6.70;;
11024;SDS011;22890;51.820;8.682;2023-08-20T11:59:12;7.77;;;7.07;;
11024;SDS011;22890;51.820;8.682;2023-08-20T12:01:40;7.70;;;7.03;;
11024;SDS011;22890;51.820;8.682;2023-08-20T12:04:08;9.00;;;6.57;;
11024;SDS011;22890;51.820;8.682;2023-08-20T12:06:37;7.60;;;6.90;;
11024;SDS011;22890;51.820;8.682;2023-08-20T12:09:22;8.33;;;7.47;;
11024;SDS011;22890;51.820;8.682;2023-08-20T12:11:50;8.27;;;6.93;;
11024;SDS011;22890;51.820;8.682;2023-08-20T12:14:22;7.13;;;6.43;;
11024;SDS011;22890;51.820;8.682;2023-08-20T12:16:49;7.87;;;6.83;;
11024;SDS011;22890;51.820;8.682;2023-08-20T12:19:19;6.63;;;6.13;;
11024;SDS011;22890;51.820;8.682;2023-08-20T12:21:46;9.37;;;8.47;;
11024;SDS011;22890;51.820;8.682;2023-08-20T12:24:13;7.43;;;6.40;;
11024;SDS011;22890;51.820;8.682;2023-08-20T12:26:40;8.57;;;7.07;;
11024;SDS011;22890;51.820;8.682;2023-08-20T12:29:07;7.87;;;7.03;;
11024;SDS011;22890;51.820;8.682;2023-08-20T12:31:34;6.97;;;6.27;;
11024;SDS011;22890;51.820;8.682;2023-08-20T12:34:01;6.93;;;6.37;;
11024;SDS011;22890;51.820;8.682;2023-08-20T12:36:29;5.93;;;5.43;;
11024;SDS011;22890;51.820;8.682;2023-08-20T12:38:56;7.20;;;6.00;;
11024;SDS011;22890;51.820;8.682;2023-08-20T12:41:23;6.97;;;6.37;;
11024;SDS011;22890;51.820;8.682;2023-08-20T12:43:50;8.40;;;7.10;;
11024;SDS011;22890;51.820;8.682;2023-08-20T12:46:17;6.90;;;6.20;;
11024;SDS011;22890;51.820;8.682;2023-08-20T12:48:44;6.87;;;6.00;;
11024;SDS011;22890;51.820;8.682;2023-08-20T12:51:11;8.13;;;6.53;;
11024;SDS011;22890;51.820;8.682;2023-08-20T12:53:40;8.50;;;7.00;;
11024;SDS011;22890;51.820;8.682;2023-08-20T12:56:07;9.20;;;6.83;;
11024;SDS011;22890;51.820;8.682;2023-08-20T12:58:34;5.70;;;5.20;;
11024;SDS011;22890;51.820;8.682;2023-08-20T13:01:01;5.50;;;5.00;;
11024;SDS011;22890;51.820;8.682;2023-08-20T13:03:28;5.33;;;4.53;;
11024;SDS011;22890;51.820;8.682;2023-08-20T13:05:55;5.77;;;4.93;;
11024;SDS011;22890;51.820;8.682;2023-08-20T13:08:25;6.93;;;5.40;;
11024;SDS011;22890;51.820;8.682;2023-08-20T13:10:55;4.97;;;4.50;;
11024;SDS011;22890;51.820;8.682;2023-08-20T13:13:24;6.50;;;4.83;;
11024;SDS011;22890;51.820;8.682;2023-08-20T13:15:51;4.60;;;4.20;;
11024;SDS011;22890;51.820;8.682;2023-08-20T13:18:19;10.87;;;4.97;;
11024;SDS011;22890;51.820;8.682;2023-08-20T13:20:52;5.00;;;4.50;;
11024;SDS011;22890;51.820;8.682;2023-08-20T13:23:19;6.03;;;5.10;;
11024;SDS011;22890;51.820;8.682;2023-08-20T13:25:46;5.57;;;4.47;;
11024;SDS011;22890;51.820;8.682;2023-08-20T13:28:13;9.80;;;4.60;;
11024;SDS011;22890;51.820;8.682;2023-08-20T13:30:39;6.43;;;4.50;;
11024;SDS011;22890;51.820;8.682;2023-08-20T13:33:06;6.17;;;5.57;;
11024;SDS011;22890;51.820;8.682;2023-08-20T13:35:33;7.07;;;5.53;;
11024;SDS011;22890;51.820;8.682;2023-08-20T13:38:00;5.37;;;4.87;;
11024;SDS011;22890;51.820;8.682;2023-08-20T13:40:27;5.00;;;4.60;;
11024;SDS011;22890;51.820;8.682;2023-08-20T13:42:54;5.57;;;5.17;;
11024;SDS011;22890;51.820;8.682;2023-08-20T13:45:21;5.47;;;4.97;;
11024;SDS011;22890;51.820;8.682;2023-08-20T13:47:48;5.20;;;4.80;;
11024;SDS011;22890;51.820;8.682;2023-08-20T13:50:15;6.10;;;5.50;;
11024;SDS011;22890;51.820;8.682;2023-08-20T13:52:42;6.23;;;5.07;;
11024;SDS011;22890;51.820;8.682;2023-08-20T13:55:09;6.03;;;5.07;;
11024;SDS011;22890;51.820;8.682;2023-08-20T13:57:36;4.90;;;4.47;;
11024;SDS011;22890;51.820;8.682;2023-08-20T14:00:03;5.67;;;5.07;;
11024;SDS011;22890;51.820;8.682;2023-08-20T14:02:41;5.47;;;5.00;;
11024;SDS011;22890;51.820;8.682;2023-08-20T14:05:08;5.00;;;4.60;;
11024;SDS011;22890;51.820;8.682;2023-08-20T14:07:35;5.33;;;4.93;;
11024;SDS011;22890;51.820;8.682;2023-08-20T14:10:02;4.97;;;4.50;;
11024;SDS011;22890;51.820;8.682;2023-08-20T14:12:30;5.40;;;4.90;;
11024;SDS011;22890;51.820;8.682;2023-08-20T14:14:57;6.23;;;4.60;;
11024;SDS011;22890;51.820;8.682;2023-08-20T14:17:24;5.60;;;5.10;;
11024;SDS011;22890;51.820;8.682;2023-08-20T14:19:51;5.30;;;4.87;;
11024;SDS011;22890;51.820;8.682;2023-08-20T14:22:18;6.30;;;5.00;;
11024;SDS011;22890;51.820;8.682;2023-08-20T14:24:45;8.23;;;5.30;;
11024;SDS011;22890;51.820;8.682;2023-08-20T14:27:12;5.60;;;5.10;;
11024;SDS011;22890;51.820;8.682;2023-08-20T14:29:40;5.87;;;5.37;;
11024;SDS011;22890;51.820;8.682;2023-08-20T14:32:07;6.27;;;5.20;;
11024;SDS011;22890;51.820;8.682;2023-08-20T14:34:33;5.30;;;4.80;;
11024;SDS011;22890;51.820;8.682;2023-08-20T14:37:00;8.43;;;5.43;;
11024;SDS011;22890;51.820;8.682;2023-08-20T14:39:27;6.80;;;5.20;;
11024;SDS011;22890;51.820;8.682;2023-08-20T14:41:57;6.20;;;4.73;;